createdAt,value
2023-02-07T00:01:31.104Z,37.87
2023-02-07T00:03:59.084Z,37.96
2023-02-07T00:06:30.968Z,37.75
2023-02-07T00:08:59.651Z,37.77
2023-02-07T00:11:27.149Z,37.63
2023-02-07T00:13:57.084Z,37.90
2023-02-07T00:16:25.060Z,39.19
2023-02-07T00:18:52.966Z,39.48
2023-02-07T00:21:22.244Z,39.23
2023-02-07T00:23:51.524Z,39.27
2023-02-07T00:26:20.728Z,40.05
2023-02-07T00:28:48.156Z,39.26
2023-02-07T00:31:18.716Z,39.20
2023-02-07T00:33:48.088Z,38.42
2023-02-07T00:36:17.875Z,38.72
2023-02-07T00:38:45.526Z,40.04
2023-02-07T00:41:14.950Z,39.63
2023-02-07T00:43:42.487Z,39.58
2023-02-07T00:46:09.880Z,38.97
2023-02-07T00:48:37.189Z,38.95
2023-02-07T00:51:04.546Z,39.49
2023-02-07T00:53:31.806Z,38.65
2023-02-07T00:55:59.086Z,38.53
2023-02-07T00:58:28.044Z,39.56
2023-02-07T01:00:55.226Z,39.08
2023-02-07T01:03:22.652Z,39.45
2023-02-07T01:05:50.093Z,39.26
2023-02-07T01:08:17.372Z,39.54
2023-02-07T01:10:46.353Z,38.89
2023-02-07T01:13:15.818Z,39.54
2023-02-07T01:15:47.435Z,39.66
2023-02-07T01:18:15.271Z,39.67
2023-02-07T01:20:42.727Z,40.56
2023-02-07T01:23:12.092Z,40.01
2023-02-07T01:25:40.069Z,39.98
2023-02-07T01:28:08.069Z,40.10
2023-02-07T01:30:35.572Z,39.57
2023-02-07T01:33:04.295Z,39.08
2023-02-07T01:35:31.393Z,39.49
2023-02-07T01:37:58.552Z,40.08
2023-02-07T01:40:26.551Z,39.40
2023-02-07T01:42:53.649Z,39.92
2023-02-07T01:45:28.627Z,39.53
2023-02-07T01:48:03.093Z,39.15
2023-02-07T01:50:33.107Z,39.20
2023-02-07T01:53:05.149Z,38.83
2023-02-07T01:55:38.720Z,38.98
2023-02-07T01:58:08.057Z,39.64
2023-02-07T02:00:36.245Z,39.06
2023-02-07T02:03:05.141Z,39.04
2023-02-07T02:05:37.381Z,38.79
2023-02-07T02:08:05.216Z,39.29
2023-02-07T02:11:02.649Z,38.57
2023-02-07T02:13:40.945Z,38.51
2023-02-07T02:16:20.674Z,40.67
2023-02-07T02:19:15.265Z,39.72
2023-02-07T02:22:17.946Z,38.83
2023-02-07T02:25:33.265Z,38.51
2023-02-07T02:28:35.449Z,37.98
2023-02-07T02:31:49.985Z,37.79
2023-02-07T02:34:25.746Z,38.32
2023-02-07T02:37:04.726Z,37.79
2023-02-07T02:39:39.745Z,39.56
2023-02-07T02:42:17.167Z,37.44
2023-02-07T02:44:52.486Z,37.18
2023-02-07T02:47:22.659Z,37.69
2023-02-07T02:49:52.409Z,38.21
2023-02-07T02:52:19.509Z,37.95
2023-02-07T02:54:46.760Z,37.65
2023-02-07T02:57:43.692Z,38.39
2023-02-07T03:00:30.310Z,39.51
2023-02-07T03:03:17.111Z,37.94
2023-02-07T03:06:04.753Z,37.86
2023-02-07T03:08:45.559Z,38.06
2023-02-07T03:11:16.192Z,38.29
2023-02-07T03:13:59.371Z,39.98
2023-02-07T03:16:35.036Z,38.91
2023-02-07T03:19:10.392Z,38.58
2023-02-07T03:21:45.355Z,37.42
2023-02-07T03:24:17.608Z,37.95
2023-02-07T03:26:48.549Z,38.38
2023-02-07T03:29:19.729Z,40.51
2023-02-07T03:31:51.226Z,38.11
2023-02-07T03:34:25.507Z,40.34
2023-02-07T03:37:03.327Z,38.83
2023-02-07T03:39:30.946Z,38.99
2023-02-07T03:42:03.964Z,38.12
2023-02-07T03:44:36.285Z,37.64
2023-02-07T03:47:05.025Z,37.93
2023-02-07T03:49:32.325Z,39.04
2023-02-07T03:52:01.397Z,39.98
2023-02-07T03:54:28.565Z,39.79
2023-02-07T03:56:55.726Z,37.51
2023-02-07T03:59:22.852Z,41.03
2023-02-07T04:01:49.994Z,41.31
2023-02-07T04:04:17.149Z,39.40
2023-02-07T04:06:44.310Z,38.87
2023-02-07T04:09:12.929Z,38.36
2023-02-07T04:11:40.366Z,38.12
2023-02-07T04:14:07.602Z,38.90
2023-02-07T04:16:34.879Z,39.71
2023-02-07T04:19:02.189Z,41.16
2023-02-07T04:21:29.431Z,38.88
2023-02-07T04:23:56.593Z,39.86
2023-02-07T04:26:25.236Z,38.55
2023-02-07T04:28:52.371Z,38.59
2023-02-07T04:31:19.662Z,40.54
2023-02-07T04:33:47.848Z,39.25
2023-02-07T04:36:15.143Z,39.22
2023-02-07T04:38:42.688Z,39.40
2023-02-07T04:41:09.885Z,42.63
2023-02-07T04:43:38.528Z,39.20
2023-02-07T04:46:07.529Z,38.79
2023-02-07T04:48:36.670Z,39.19
2023-02-07T04:51:04.245Z,39.49
2023-02-07T04:53:31.424Z,40.51
2023-02-07T04:55:58.509Z,39.66
2023-02-07T04:58:26.254Z,40.43
2023-02-07T05:00:55.320Z,40.56
2023-02-07T05:03:22.628Z,41.22
2023-02-07T05:05:52.588Z,41.07
2023-02-07T05:08:19.810Z,40.38
2023-02-07T05:10:47.172Z,40.83
2023-02-07T05:13:14.190Z,40.76
2023-02-07T05:15:41.312Z,39.55
2023-02-07T05:18:10.010Z,40.46
2023-02-07T05:20:37.075Z,40.09
2023-02-07T05:23:04.283Z,39.66
2023-02-07T05:25:31.511Z,40.91
2023-02-07T05:27:58.715Z,40.53
2023-02-07T05:30:26.151Z,40.28
2023-02-07T05:32:53.291Z,40.52
2023-02-07T05:35:21.908Z,38.84
2023-02-07T05:37:49.114Z,39.50
2023-02-07T05:40:16.388Z,39.91
2023-02-07T05:42:43.494Z,39.79
2023-02-07T05:45:10.956Z,42.82
2023-02-07T05:47:38.147Z,39.31
2023-02-07T05:50:06.629Z,39.50
2023-02-07T05:52:35.887Z,41.40
2023-02-07T05:55:03.632Z,39.28
2023-02-07T05:57:30.748Z,39.05
2023-02-07T05:59:58.048Z,39.70
2023-02-07T06:02:25.333Z,39.17
2023-02-07T06:04:52.645Z,39.40
2023-02-07T06:07:19.985Z,39.43
2023-02-07T06:09:48.527Z,39.51
2023-02-07T06:12:15.949Z,39.42
2023-02-07T06:14:43.047Z,39.08
2023-02-07T06:17:10.183Z,39.37
2023-02-07T06:19:37.321Z,39.34
2023-02-07T06:22:04.524Z,38.86
2023-02-07T06:24:32.021Z,39.59
2023-02-07T06:27:00.703Z,41.71
2023-02-07T06:29:27.952Z,38.80
2023-02-07T06:31:55.094Z,40.02
2023-02-07T06:34:22.470Z,38.90
2023-02-07T06:36:49.869Z,37.65
2023-02-07T06:39:17.027Z,40.11
2023-02-07T06:41:44.388Z,37.72
2023-02-07T06:44:13.186Z,37.83
2023-02-07T06:46:40.406Z,37.30
2023-02-07T06:49:07.532Z,37.16
2023-02-07T06:51:34.788Z,36.92
2023-02-07T06:54:01.987Z,37.91
2023-02-07T06:56:29.188Z,36.92
2023-02-07T06:58:56.366Z,37.71
2023-02-07T07:01:25.015Z,37.61
2023-02-07T07:03:52.209Z,37.80
2023-02-07T07:06:19.392Z,36.33
2023-02-07T07:08:46.601Z,36.47
2023-02-07T07:11:13.729Z,36.18
2023-02-07T07:13:41.012Z,36.56
2023-02-07T07:16:08.393Z,37.44
2023-02-07T07:18:37.195Z,37.46
2023-02-07T07:21:04.917Z,37.61
2023-02-07T07:23:32.135Z,36.85
2023-02-07T07:25:59.288Z,36.40
2023-02-07T07:28:26.585Z,35.28
2023-02-07T07:30:53.793Z,34.24
2023-02-07T07:33:20.998Z,33.64
2023-02-07T07:35:56.975Z,32.73
2023-02-07T07:38:24.191Z,32.10
2023-02-07T07:40:51.509Z,30.60
2023-02-07T07:43:19.149Z,36.73
2023-02-07T07:45:47.108Z,38.71
2023-02-07T07:48:14.371Z,30.95
2023-02-07T07:50:42.060Z,32.86
2023-02-07T07:53:11.073Z,29.71
2023-02-07T07:55:38.207Z,26.54
2023-02-07T07:58:05.446Z,26.50
2023-02-07T08:00:32.853Z,27.49
2023-02-07T08:03:00.141Z,27.68
2023-02-07T08:05:27.425Z,27.79
2023-02-07T08:07:54.544Z,27.02
2023-02-07T08:10:23.125Z,28.36
2023-02-07T08:12:50.304Z,29.37
2023-02-07T08:15:18.327Z,29.96
2023-02-07T08:17:45.500Z,29.41
2023-02-07T08:20:12.848Z,28.90
2023-02-07T08:22:40.185Z,28.39
2023-02-07T08:25:08.366Z,27.81
2023-02-07T08:27:37.270Z,27.58
2023-02-07T08:30:05.287Z,27.49
2023-02-07T08:32:32.407Z,27.28
2023-02-07T08:34:59.706Z,34.91
2023-02-07T08:37:27.232Z,29.93
2023-02-07T08:39:54.356Z,29.87
2023-02-07T08:42:22.407Z,26.95
2023-02-07T08:44:51.693Z,26.00
2023-02-07T08:47:18.965Z,26.41
2023-02-07T08:49:46.107Z,27.41
2023-02-07T08:52:13.350Z,23.45
2023-02-07T08:54:40.647Z,23.51
2023-02-07T08:57:07.888Z,24.41
2023-02-07T08:59:35.070Z,23.61
2023-02-07T09:02:03.956Z,24.12
2023-02-07T09:04:31.542Z,23.89
2023-02-07T09:06:58.774Z,25.44
2023-02-07T09:09:25.931Z,25.31
2023-02-07T09:11:53.130Z,25.35
2023-02-07T09:14:20.272Z,25.38
2023-02-07T09:16:47.533Z,24.71
2023-02-07T09:19:16.188Z,25.15
2023-02-07T09:21:43.356Z,24.81
2023-02-07T09:24:10.533Z,24.87
2023-02-07T09:26:37.811Z,24.77
2023-02-07T09:29:05.730Z,25.40
2023-02-07T09:31:34.366Z,24.71
2023-02-07T09:34:01.771Z,25.09
2023-02-07T09:36:31.039Z,25.45
2023-02-07T09:38:59.935Z,24.50
2023-02-07T09:41:39.356Z,24.07
2023-02-07T09:44:15.193Z,24.83
2023-02-07T09:46:49.414Z,24.57
2023-02-07T09:49:36.853Z,23.96
2023-02-07T09:52:14.256Z,23.58
2023-02-07T09:54:44.614Z,24.96
2023-02-07T09:57:18.251Z,25.13
2023-02-07T09:59:54.236Z,24.70
2023-02-07T10:02:32.117Z,23.94
2023-02-07T10:05:06.168Z,23.91
2023-02-07T10:07:34.948Z,25.17
2023-02-07T10:10:02.442Z,26.14
2023-02-07T10:12:59.300Z,26.35
2023-02-07T10:15:49.342Z,25.06
2023-02-07T10:18:40.034Z,25.86
2023-02-07T10:21:20.406Z,25.83
2023-02-07T10:24:22.662Z,26.42
2023-02-07T10:26:54.789Z,25.65
2023-02-07T10:29:51.572Z,25.19
2023-02-07T10:32:22.881Z,26.94
2023-02-07T10:34:55.988Z,25.78
2023-02-07T10:37:25.950Z,25.62
2023-02-07T10:40:03.268Z,25.54
2023-02-07T10:42:37.486Z,25.07
2023-02-07T10:45:06.441Z,25.47
2023-02-07T10:47:39.690Z,26.10
2023-02-07T10:50:16.071Z,25.31
2023-02-07T10:52:52.452Z,26.32
2023-02-07T10:55:34.447Z,25.11
2023-02-07T10:58:17.647Z,24.87
2023-02-07T11:00:51.911Z,24.98
2023-02-07T11:03:22.275Z,26.92
2023-02-07T11:05:56.076Z,25.73
2023-02-07T11:08:26.250Z,27.02
2023-02-07T11:10:56.419Z,26.53
2023-02-07T11:13:29.137Z,26.20
2023-02-07T11:16:01.200Z,26.21
2023-02-07T11:18:39.810Z,27.25
2023-02-07T11:21:22.627Z,26.86
2023-02-07T11:23:52.101Z,26.26
2023-02-07T11:26:22.152Z,26.73
2023-02-07T11:29:02.231Z,26.95
2023-02-07T11:31:33.121Z,25.70
2023-02-07T11:34:10.717Z,27.05
2023-02-07T11:36:38.011Z,25.90
2023-02-07T11:39:18.477Z,26.66
2023-02-07T11:41:55.534Z,26.76
2023-02-07T11:44:26.021Z,27.33
2023-02-07T11:46:57.891Z,27.14
2023-02-07T11:49:31.819Z,27.56
2023-02-07T11:52:02.952Z,28.30
2023-02-07T11:54:32.883Z,27.87
2023-02-07T11:57:05.669Z,26.95
2023-02-07T11:59:34.972Z,28.30
2023-02-07T12:02:17.706Z,27.97
2023-02-07T12:04:45.533Z,28.07
2023-02-07T12:07:19.175Z,27.31
2023-02-07T12:09:53.709Z,27.54
2023-02-07T12:12:31.123Z,26.26
2023-02-07T12:15:07.060Z,27.87
2023-02-07T12:17:42.980Z,28.98
2023-02-07T12:20:22.673Z,27.96
2023-02-07T12:23:09.804Z,28.29
2023-02-07T12:25:52.052Z,28.85
2023-02-07T12:28:28.716Z,29.25
2023-02-07T12:31:06.907Z,28.91
2023-02-07T12:33:47.859Z,27.61
2023-02-07T12:36:25.635Z,28.94
2023-02-07T12:39:00.637Z,30.56
2023-02-07T12:41:35.834Z,28.72
2023-02-07T12:44:15.820Z,30.17
2023-02-07T12:46:59.363Z,29.25
2023-02-07T12:49:55.197Z,29.92
2023-02-07T12:52:41.734Z,29.73
2023-02-07T12:55:26.164Z,30.20
2023-02-07T12:58:15.176Z,30.46
2023-02-07T13:00:57.053Z,28.45
2023-02-07T13:03:46.093Z,29.93
2023-02-07T13:06:28.165Z,29.96
2023-02-07T13:09:08.311Z,29.89
2023-02-07T13:11:41.789Z,30.21
2023-02-07T13:14:25.974Z,30.26
2023-02-07T13:17:10.236Z,30.99
2023-02-07T13:19:51.575Z,30.74
2023-02-07T13:22:30.941Z,30.73
2023-02-07T13:25:01.256Z,29.71
2023-02-07T13:27:32.224Z,29.68
2023-02-07T13:30:02.657Z,31.19
2023-02-07T13:32:29.991Z,30.45
2023-02-07T13:35:04.683Z,30.38
2023-02-07T13:37:42.907Z,30.04
2023-02-07T13:40:29.588Z,30.17
2023-02-07T13:43:07.440Z,30.78
2023-02-07T13:45:47.352Z,31.01
2023-02-07T13:48:25.593Z,29.97
2023-02-07T13:51:04.776Z,29.81
2023-02-07T13:53:46.690Z,29.60
2023-02-07T13:56:15.490Z,29.50
2023-02-07T13:58:52.694Z,29.61
2023-02-07T14:01:23.603Z,30.31
2023-02-07T14:04:03.356Z,30.38
2023-02-07T14:06:36.497Z,30.88
2023-02-07T14:09:15.109Z,30.54
2023-02-07T14:11:45.256Z,29.52
2023-02-07T14:14:23.297Z,30.99
2023-02-07T14:16:52.772Z,30.22
2023-02-07T14:19:54.142Z,30.42
2023-02-07T14:22:26.494Z,31.26
2023-02-07T14:25:21.680Z,31.46
2023-02-07T14:28:29.114Z,31.34
2023-02-07T14:31:13.037Z,31.73
2023-02-07T14:33:40.706Z,32.35
2023-02-07T14:36:24.236Z,31.83
2023-02-07T14:39:06.770Z,31.67
2023-02-07T14:41:38.689Z,31.53
2023-02-07T14:44:10.199Z,31.13
2023-02-07T14:46:42.000Z,32.02
2023-02-07T14:49:19.691Z,31.39
2023-02-07T14:51:50.871Z,31.43
2023-02-07T14:54:29.714Z,31.16
2023-02-07T14:57:20.122Z,31.55
2023-02-07T14:59:59.135Z,31.87
2023-02-07T15:02:30.877Z,31.12
2023-02-07T15:04:58.872Z,31.17
2023-02-07T15:07:26.138Z,31.43
2023-02-07T15:09:54.839Z,31.20
2023-02-07T15:12:27.561Z,32.00
2023-02-07T15:14:57.396Z,32.13
2023-02-07T15:17:36.070Z,32.07
2023-02-07T15:20:17.080Z,32.47
2023-02-07T15:22:49.046Z,32.48
2023-02-07T15:25:18.560Z,32.05
2023-02-07T15:28:01.307Z,32.44
2023-02-07T15:30:32.175Z,32.77
2023-02-07T15:33:00.126Z,32.75
2023-02-07T15:35:36.759Z,32.26
2023-02-07T15:38:21.167Z,32.60
2023-02-07T15:40:51.529Z,32.05
2023-02-07T15:43:29.132Z,32.55
2023-02-07T15:46:04.285Z,32.14
2023-02-07T15:48:33.353Z,32.36
2023-02-07T15:51:05.335Z,32.98
2023-02-07T15:53:32.980Z,31.63
2023-02-07T15:56:06.347Z,32.04
2023-02-07T15:58:37.351Z,32.63
2023-02-07T16:01:14.253Z,32.83
2023-02-07T16:03:45.117Z,32.98
2023-02-07T16:06:18.194Z,32.40
2023-02-07T16:08:46.118Z,33.15
2023-02-07T16:11:31.957Z,32.80
2023-02-07T16:14:04.872Z,32.50
2023-02-07T16:16:36.993Z,33.13
2023-02-07T16:19:07.717Z,33.56
2023-02-07T16:21:37.375Z,33.34
2023-02-07T16:24:09.579Z,32.66
2023-02-07T16:26:39.055Z,31.04
2023-02-07T16:29:07.502Z,29.94
2023-02-07T16:31:35.697Z,28.91
2023-02-07T16:34:02.958Z,28.91
2023-02-07T16:36:30.232Z,28.76
2023-02-07T16:38:57.679Z,28.59
2023-02-07T16:41:29.310Z,27.84
2023-02-07T16:44:00.241Z,27.77
2023-02-07T16:46:28.140Z,28.48
2023-02-07T16:48:55.745Z,28.49
2023-02-07T16:51:23.550Z,28.66
2023-02-07T16:53:50.886Z,28.67
2023-02-07T16:56:25.687Z,29.61
2023-02-07T16:58:53.276Z,28.83
2023-02-07T17:01:22.642Z,28.70
2023-02-07T17:03:49.975Z,29.14
2023-02-07T17:06:19.297Z,28.71
2023-02-07T17:08:47.638Z,28.35
2023-02-07T17:11:17.386Z,29.22
2023-02-07T17:13:44.559Z,28.19
2023-02-07T17:16:13.055Z,28.29
2023-02-07T17:18:42.400Z,28.58
2023-02-07T17:21:10.060Z,28.89
2023-02-07T17:23:37.673Z,29.99
2023-02-07T17:26:11.206Z,29.21
2023-02-07T17:28:38.475Z,29.66
2023-02-07T17:31:05.616Z,30.45
2023-02-07T17:33:33.027Z,30.47
2023-02-07T17:36:01.811Z,29.47
2023-02-07T17:38:29.008Z,30.12
2023-02-07T17:40:56.184Z,30.16
2023-02-07T17:43:23.390Z,29.42
2023-02-07T17:45:50.602Z,28.63
2023-02-07T17:48:17.864Z,28.35
2023-02-07T17:50:45.024Z,28.75
2023-02-07T17:53:13.643Z,29.14
2023-02-07T17:55:41.023Z,27.74
2023-02-07T17:58:10.880Z,27.64
2023-02-07T18:00:39.786Z,27.67
2023-02-07T18:03:08.619Z,28.52
2023-02-07T18:05:36.567Z,28.33
2023-02-07T18:08:04.176Z,28.88
2023-02-07T18:10:35.419Z,28.82
2023-02-07T18:13:02.859Z,29.06
2023-02-07T18:15:30.534Z,29.72
2023-02-07T18:17:58.163Z,29.44
2023-02-07T18:20:28.918Z,29.82
2023-02-07T18:22:58.220Z,29.67
2023-02-07T18:25:27.438Z,30.13
2023-02-07T18:27:57.383Z,30.54
2023-02-07T18:30:27.026Z,31.37
2023-02-07T18:32:54.436Z,30.94
2023-02-07T18:35:22.025Z,30.98
2023-02-07T18:37:49.584Z,31.31
2023-02-07T18:40:16.786Z,31.72
2023-02-07T18:42:43.989Z,31.65
2023-02-07T18:45:12.763Z,32.20
2023-02-07T18:47:41.828Z,32.66
2023-02-07T18:50:11.702Z,32.41
2023-02-07T18:52:39.438Z,32.26
2023-02-07T18:55:07.444Z,32.12
2023-02-07T18:57:34.804Z,32.20
2023-02-07T19:00:04.683Z,31.90
2023-02-07T19:02:33.425Z,31.91
2023-02-07T19:05:00.662Z,31.80
2023-02-07T19:07:28.117Z,31.91
2023-02-07T19:09:56.078Z,31.85
2023-02-07T19:12:23.235Z,31.78
2023-02-07T19:14:50.939Z,32.14
2023-02-07T19:17:18.106Z,32.25
2023-02-07T19:19:46.784Z,32.52
2023-02-07T19:22:15.085Z,32.40
2023-02-07T19:24:44.024Z,32.76
2023-02-07T19:27:11.205Z,32.72
2023-02-07T19:29:38.378Z,32.78
2023-02-07T19:32:08.654Z,32.58
2023-02-07T19:34:36.201Z,33.46
2023-02-07T19:37:05.395Z,33.22
2023-02-07T19:39:32.885Z,33.55
2023-02-07T19:42:02.527Z,33.54
2023-02-07T19:44:29.922Z,33.17
2023-02-07T19:46:57.322Z,33.53
2023-02-07T19:49:24.621Z,33.62
2023-02-07T19:51:51.818Z,33.51
2023-02-07T19:54:20.433Z,33.38
2023-02-07T19:56:50.213Z,33.60
2023-02-07T19:59:17.373Z,33.54
2023-02-07T20:01:44.745Z,33.71
2023-02-07T20:04:11.970Z,33.69
2023-02-07T20:06:39.174Z,34.13
2023-02-07T20:09:08.184Z,34.07
2023-02-07T20:11:37.034Z,34.64
2023-02-07T20:14:04.346Z,34.74
2023-02-07T20:16:34.479Z,34.85
2023-02-07T20:19:03.577Z,34.79
2023-02-07T20:21:31.645Z,34.75
2023-02-07T20:23:59.678Z,35.10
2023-02-07T20:26:31.485Z,34.57
2023-02-07T20:29:02.641Z,34.84
2023-02-07T20:31:30.582Z,35.12
2023-02-07T20:33:58.186Z,35.44
2023-02-07T20:36:27.141Z,35.33
2023-02-07T20:38:57.092Z,35.43
2023-02-07T20:41:27.459Z,35.46
2023-02-07T20:43:55.663Z,35.53
2023-02-07T20:46:25.394Z,36.01
2023-02-07T20:48:56.001Z,35.88
2023-02-07T20:51:23.600Z,44.24
2023-02-07T20:53:51.081Z,33.77
2023-02-07T20:56:18.340Z,31.80
2023-02-07T20:58:46.459Z,29.29
2023-02-07T21:01:16.866Z,30.74
2023-02-07T21:03:46.841Z,31.31
2023-02-07T21:06:14.340Z,32.65
2023-02-07T21:08:42.798Z,33.54
2023-02-07T21:11:10.240Z,34.05
2023-02-07T21:13:38.499Z,34.76
2023-02-07T21:16:08.005Z,34.79
2023-02-07T21:18:35.860Z,35.29
2023-02-07T21:21:08.066Z,35.40
2023-02-07T21:23:36.076Z,35.92
2023-02-07T21:26:05.238Z,36.00
2023-02-07T21:28:33.295Z,36.00
2023-02-07T21:31:03.338Z,36.26
2023-02-07T21:33:32.015Z,36.15
2023-02-07T21:36:12.156Z,36.11
2023-02-07T21:38:40.576Z,36.56
2023-02-07T21:41:09.775Z,36.20
2023-02-07T21:43:37.773Z,36.76
2023-02-07T21:46:07.005Z,36.58
2023-02-07T21:48:35.413Z,36.47
2023-02-07T21:51:05.177Z,36.47
2023-02-07T21:53:34.116Z,36.94
2023-02-07T21:56:01.736Z,36.46
2023-02-07T21:58:29.018Z,36.92
2023-02-07T22:00:56.829Z,36.66
2023-02-07T22:03:24.079Z,36.47
2023-02-07T22:05:52.041Z,36.55
2023-02-07T22:08:19.278Z,36.97
2023-02-07T22:10:47.860Z,36.95
2023-02-07T22:13:15.178Z,37.07
2023-02-07T22:15:47.678Z,37.22
2023-02-07T22:18:14.958Z,37.01
2023-02-07T22:20:42.758Z,37.36
2023-02-07T22:23:10.123Z,37.33
2023-02-07T22:25:39.864Z,37.28
2023-02-07T22:28:08.665Z,37.41
2023-02-07T22:30:37.152Z,37.24
2023-02-07T22:33:04.859Z,37.44
2023-02-07T22:35:36.001Z,37.12
2023-02-07T22:38:03.481Z,37.50
2023-02-07T22:40:30.818Z,37.38
2023-02-07T22:42:58.021Z,37.29
2023-02-07T22:45:26.757Z,36.86
2023-02-07T22:47:54.097Z,37.22
2023-02-07T22:50:21.678Z,36.89
2023-02-07T22:52:49.257Z,36.68
2023-02-07T22:55:16.536Z,37.11
2023-02-07T22:57:43.719Z,37.11
2023-02-07T23:00:12.573Z,36.77
2023-02-07T23:02:41.208Z,37.60
2023-02-07T23:05:08.579Z,37.12
2023-02-07T23:07:36.026Z,37.53
2023-02-07T23:10:03.637Z,37.65
2023-02-07T23:12:30.965Z,37.30
2023-02-07T23:14:59.078Z,36.86
2023-02-07T23:17:26.775Z,37.56
2023-02-07T23:19:55.605Z,37.38
2023-02-07T23:22:22.708Z,37.52
2023-02-07T23:24:50.156Z,37.81
2023-02-07T23:27:17.291Z,37.17
2023-02-07T23:29:44.467Z,37.83
2023-02-07T23:32:11.736Z,37.72
2023-02-07T23:34:38.876Z,37.36
2023-02-07T23:37:07.519Z,37.64
2023-02-07T23:39:35.498Z,37.74
2023-02-07T23:42:02.757Z,37.36
2023-02-07T23:44:29.937Z,37.78
2023-02-07T23:46:57.138Z,37.65
2023-02-07T23:49:24.304Z,38.37
2023-02-07T23:51:51.528Z,38.19
2023-02-07T23:54:20.163Z,38.33
2023-02-07T23:56:47.319Z,38.18
2023-02-07T23:59:14.540Z,37.56
